Time;durP1;ratioP1;P1;durP2;ratioP2;P2;SDS_P1;SDS_P2;PMS_P1;PMS_P2;Temp;Humidity;BMP_temperature;BMP_pressure;BME280_temperature;BME280_humidity;BME280_pressure;Samples;Min_cycle;Max_cycle;Signal;HPM_P1;HPM_P2
2021/12/20 00:00:26;;;;;;;5.22;2.97;;;;;;;1.77;87.28;98703.59;2552548;29;20054;-78
2021/12/20 00:01:57;;;;;;;6.80;2.90;;;;;;;1.74;87.34;98700.09;2552989;29;20051;-78
2021/12/20 00:03:14;;;;;;;5.90;2.80;;;;;;;1.71;87.08;98693.22;2554586;29;20413;-81
2021/12/20 00:04:29;;;;;;;6.13;3.03;;;;;;;1.69;87.12;98700.94;2553355;29;20093;-79
2021/12/20 00:05:45;;;;;;;4.03;3.00;;;;;;;1.69;87.27;98702.66;2552552;29;20051;-78
2021/12/20 00:07:01;;;;;;;4.03;2.75;;;;;;;1.71;87.22;98697.50;2552590;28;20595;-78
2021/12/20 00:08:16;;;;;;;6.22;2.70;;;;;;;1.75;87.11;98704.44;2553506;29;20131;-78
2021/12/20 00:09:32;;;;;;;6.80;3.30;;;;;;;1.83;86.75;98702.81;2550893;29;20984;-78
2021/12/20 00:10:47;;;;;;;5.00;2.97;;;;;;;1.86;86.71;98709.72;2553006;29;20055;-80
2021/12/20 00:12:04;;;;;;;6.38;3.13;;;;;;;2.09;86.67;98708.25;2552848;28;20059;-78
2021/12/20 00:13:19;;;;;;;4.55;2.78;;;;;;;2.19;86.25;98704.06;2552071;29;20109;-82
2021/12/20 00:14:35;;;;;;;5.07;2.80;;;;;;;2.26;86.17;98710.16;2553716;29;20498;-79
2021/12/20 00:15:50;;;;;;;5.80;2.97;;;;;;;2.18;85.99;98711.78;2550739;29;20051;-79
2021/12/20 00:17:06;;;;;;;5.38;2.55;;;;;;;2.38;85.63;98712.88;2550428;29;20463;-79
2021/12/20 00:18:22;;;;;;;5.50;2.42;;;;;;;2.57;84.45;98709.56;2552500;29;20090;-78
2021/12/20 00:19:37;;;;;;;4.80;2.50;;;;;;;2.55;84.64;98714.72;2552699;29;20052;-78
2021/12/20 00:20:53;;;;;;;5.00;2.97;;;;;;;2.53;84.66;98713.84;2550507;29;20084;-78
2021/12/20 00:22:09;;;;;;;7.82;2.70;;;;;;;2.55;84.62;98712.13;2554237;28;20569;-78
2021/12/20 00:23:24;;;;;;;5.03;2.50;;;;;;;2.52;84.45;98717.28;2552754;29;20593;-78
2021/12/20 00:24:40;;;;;;;3.20;1.60;;;;;;;2.60;83.80;98712.19;2550604;29;20098;-78
2021/12/20 00:25:56;;;;;;;5.70;2.00;;;;;;;2.63;83.39;98717.38;2553286;29;20054;-78
2021/12/20 00:27:14;;;;;;;3.47;1.85;;;;;;;2.72;82.74;98716.59;2551001;29;20079;-78
2021/12/20 00:28:29;;;;;;;5.55;2.20;;;;;;;2.72;82.90;98720.00;2551726;29;20090;-78
2021/12/20 00:29:47;;;;;;;6.43;1.70;;;;;;;2.68;82.23;98720.84;2551643;28;20063;-78
2021/12/20 00:31:02;;;;;;;3.55;1.63;;;;;;;2.71;81.29;98730.38;2551293;29;20069;-79
2021/12/20 00:32:18;;;;;;;8.35;2.10;;;;;;;2.68;80.65;98726.03;2550558;29;20055;-77
2021/12/20 00:33:34;;;;;;;3.88;1.58;;;;;;;2.72;81.07;98727.78;2551249;29;20501;-78
2021/12/20 00:34:50;;;;;;;2.10;1.20;;;;;;;2.72;81.01;98724.34;2551960;29;20414;-76
2021/12/20 00:36:08;;;;;;;2.70;1.35;;;;;;;2.73;80.72;98726.06;2553536;29;20399;-78
2021/12/20 00:40:32;;;;;;;5.60;1.70;;;;;;;2.70;80.05;98723.47;2552416;29;20055;-78
2021/12/20 00:41:47;;;;;;;2.92;1.42;;;;;;;2.69;80.20;98722.59;2552229;29;20509;-77
2021/12/20 00:43:04;;;;;;;2.60;1.27;;;;;;;2.66;80.19;98718.28;2552401;29;20078;-78
2021/12/20 00:44:20;;;;;;;5.22;1.40;;;;;;;2.71;79.51;98715.69;2551191;29;20083;-77
2021/12/20 00:45:37;;;;;;;2.63;1.35;;;;;;;2.68;79.91;98723.44;2551762;29;20316;-79
2021/12/20 00:46:53;;;;;;;3.30;1.30;;;;;;;2.58;79.86;98713.88;2550656;29;20044;-78
2021/12/20 00:48:08;;;;;;;4.68;1.45;;;;;;;2.60;79.84;98720.78;2551781;28;20101;-79
2021/12/20 00:49:24;;;;;;;3.88;1.27;;;;;;;2.56;79.98;98716.47;2550874;29;20075;-78
2021/12/20 00:50:42;;;;;;;2.13;1.00;;;;;;;2.62;79.96;98726.84;2553480;29;20479;-78
2021/12/20 00:51:58;;;;;;;4.43;1.67;;;;;;;2.55;79.79;98722.47;2550777;29;20505;-78
2021/12/20 00:53:14;;;;;;;2.45;1.25;;;;;;;2.52;79.36;98722.47;2552358;29;20077;-78
2021/12/20 00:54:29;;;;;;;4.10;1.60;;;;;;;2.52;79.52;98719.88;2553115;28;20051;-78
2021/12/20 00:55:45;;;;;;;3.45;1.30;;;;;;;2.45;79.73;98725.81;2552404;29;20052;-80
2021/12/20 00:57:01;;;;;;;3.10;1.50;;;;;;;2.36;79.99;98721.44;2549775;28;20075;-78
2021/12/20 00:58:17;;;;;;;4.70;1.52;;;;;;;2.37;80.29;98724.03;2551802;29;20122;-80
2021/12/20 00:59:32;;;;;;;2.30;1.30;;;;;;;2.36;80.41;98724.88;2551895;29;20643;-78
2021/12/20 01:00:55;;;;;;;4.65;1.42;;;;;;;2.29;80.61;98729.97;2550873;29;20059;-79
2021/12/20 01:02:10;;;;;;;;;;;;;;;2.20;80.87;98735.91;2552969;28;20553;-78
2021/12/20 01:03:27;;;;;;;3.28;1.67;;;;;;;2.10;80.89;98737.53;2550856;28;20051;-78
2021/12/20 01:04:43;;;;;;;2.95;1.38;;;;;;;2.02;80.78;98736.56;2552130;29;20063;-78
2021/12/20 01:06:01;;;;;;;3.85;1.10;;;;;;;1.95;80.82;98749.44;2552652;28;20832;-78
2021/12/20 01:07:16;;;;;;;6.20;1.70;;;;;;;1.99;80.65;98750.34;2550409;29;20051;-78
2021/12/20 01:08:36;;;;;;;3.55;1.60;;;;;;;1.87;80.81;98747.59;2550608;29;20086;-78
2021/12/20 01:09:53;;;;;;;4.22;1.27;;;;;;;1.80;80.91;98750.09;2550271;28;20051;-78
2021/12/20 01:11:09;;;;;;;2.22;1.30;;;;;;;1.82;81.15;98753.59;2551596;29;20312;-78
2021/12/20 01:12:30;;;;;;;5.10;1.52;;;;;;;1.82;80.82;98757.88;2551833;29;20095;-79
2021/12/20 01:13:46;;;;;;;4.43;1.38;;;;;;;1.73;81.09;98752.59;2551610;28;20055;-81
2021/12/20 01:15:03;;;;;;;3.00;1.20;;;;;;;1.62;81.31;98757.63;2552259;29;20055;-78
2021/12/20 01:16:28;;;;;;;4.38;1.30;;;;;;;1.57;81.69;98756.69;2553406;29;20321;-79
2021/12/20 01:17:44;;;;;;;4.80;1.50;;;;;;;1.51;81.79;98762.63;2552933;28;20055;-79
2021/12/20 01:19:00;;;;;;;3.83;1.42;;;;;;;1.60;81.63;98761.91;2551332;29;20150;-78
2021/12/20 01:20:16;;;;;;;5.88;1.45;;;;;;;1.59;81.45;98758.44;2550597;29;20051;-80
2021/12/20 01:21:32;;;;;;;2.28;1.35;;;;;;;1.46;81.60;98760.00;2549700;28;20058;-78
2021/12/20 01:22:49;;;;;;;4.80;1.40;;;;;;;1.43;81.93;98756.50;2551471;29;20058;-77
2021/12/20 01:24:05;;;;;;;6.13;1.20;;;;;;;1.46;82.22;98761.69;2550284;29;20051;-78
2021/12/20 01:25:22;;;;;;;5.15;1.33;;;;;;;1.45;81.94;98768.56;2550808;29;20067;-78
2021/12/20 01:26:37;;;;;;;3.60;1.35;;;;;;;1.34;82.05;98768.44;2550413;29;20414;-78
2021/12/20 01:27:54;;;;;;;3.60;1.45;;;;;;;1.30;82.15;98768.38;2550211;29;20346;-81
2021/12/20 01:29:09;;;;;;;6.07;1.50;;;;;;;1.08;82.35;98768.91;2550977;29;20055;-78
2021/12/20 01:30:27;;;;;;;2.20;1.30;;;;;;;1.08;82.86;98773.19;2552232;29;20414;-78
2021/12/20 01:31:43;;;;;;;2.13;1.20;;;;;;;1.10;82.79;98769.78;2549936;28;20474;-82
2021/12/20 01:32:58;;;;;;;1.92;1.23;;;;;;;1.18;82.92;98772.50;2550829;29;20055;-78
2021/12/20 01:34:14;;;;;;;1.45;1.15;;;;;;;1.15;82.77;98775.03;2551508;28;20047;-79
2021/12/20 01:35:30;;;;;;;3.20;1.50;;;;;;;1.17;82.75;98777.59;2551809;29;20056;-78
2021/12/20 01:36:45;;;;;;;3.10;1.23;;;;;;;1.12;82.55;98778.41;2551747;29;20884;-78
2021/12/20 01:38:01;;;;;;;1.85;1.00;;;;;;;1.09;82.57;98774.91;2552358;29;20100;-78
2021/12/20 01:39:17;;;;;;;5.05;1.50;;;;;;;1.06;82.45;98777.44;2551949;29;20110;-78
2021/12/20 01:40:35;;;;;;;3.28;1.27;;;;;;;0.88;82.58;98776.31;2551223;29;20051;-79
2021/12/20 01:41:53;;;;;;;4.40;1.30;;;;;;;0.93;82.91;98768.66;2553151;28;20153;-79
2021/12/20 01:43:11;;;;;;;2.88;1.08;;;;;;;0.90;82.94;98779.78;2550842;29;20051;-79
2021/12/20 01:44:27;;;;;;;2.25;1.13;;;;;;;0.77;83.21;98781.31;2553129;29;20051;-80
2021/12/20 01:45:44;;;;;;;4.82;1.60;;;;;;;0.58;83.50;98782.69;2550018;28;20082;-78
2021/12/20 01:47:02;;;;;;;2.75;1.08;;;;;;;0.43;84.31;98785.00;2551304;28;20083;-80
2021/12/20 01:48:20;;;;;;;2.75;1.40;;;;;;;0.31;85.15;98799.38;2552711;29;20482;-79
2021/12/20 01:49:43;;;;;;;2.60;1.38;;;;;;;0.34;85.31;98793.41;2552217;29;20055;-78
2021/12/20 01:52:21;;;;;;;4.53;1.40;;;;;;;0.50;83.79;98790.28;2552977;29;20494;-78
2021/12/20 01:53:40;;;;;;;3.38;1.20;;;;;;;0.56;83.01;98784.38;2553171;29;20043;-77
2021/12/20 01:54:55;;;;;;;5.53;1.45;;;;;;;0.62;81.83;98791.31;2551905;29;20182;-78
2021/12/20 01:56:11;;;;;;;2.50;1.10;;;;;;;0.79;79.79;98792.50;2551618;29;20146;-79
2021/12/20 01:57:27;;;;;;;4.80;1.10;;;;;;;0.91;78.72;98780.63;2549872;29;20090;-78
2021/12/20 01:58:42;;;;;;;4.80;1.08;;;;;;;0.99;77.69;98786.81;2551726;29;20055;-77
2021/12/20 01:59:58;;;;;;;2.28;1.30;;;;;;;1.05;77.41;98780.88;2551285;29;20059;-77
2021/12/20 02:02:30;;;;;;;2.28;1.08;;;;;;;1.12;76.30;98782.72;2550488;28;20469;-78
2021/12/20 02:03:50;;;;;;;3.47;1.30;;;;;;;1.10;76.04;98787.84;2552627;29;20383;-77
2021/12/20 02:05:17;;;;;;;2.90;1.10;;;;;;;1.12;75.37;98786.16;2549913;29;20056;-78
2021/12/20 02:06:37;;;;;;;6.07;1.60;;;;;;;1.10;75.62;98782.69;2550742;29;20522;-79
2021/12/20 02:08:13;;;;;;;5.35;1.23;;;;;;;1.01;75.83;98787.69;2551184;29;20043;-77
2021/12/20 02:09:29;;;;;;;3.42;1.33;;;;;;;0.85;76.34;98789.16;2549926;29;20052;-78
2021/12/20 02:10:45;;;;;;;3.78;1.20;;;;;;;0.80;76.51;98793.34;2549710;28;20056;-78
2021/12/20 02:12:01;;;;;;;5.20;1.38;;;;;;;0.68;76.95;98797.44;2549995;29;20482;-81
2021/12/20 02:13:18;;;;;;;4.00;1.30;;;;;;;0.63;76.85;98796.53;2551239;29;20055;-79
2021/12/20 02:14:33;;;;;;;7.30;1.58;;;;;;;0.52;78.22;98795.44;2551288;29;20051;-78
2021/12/20 02:15:49;;;;;;;5.05;1.30;;;;;;;0.40;78.01;98786.66;2552201;29;20056;-78
2021/12/20 02:17:04;;;;;;;3.78;1.35;;;;;;;0.51;77.06;98791.13;2552647;28;20062;-78
2021/12/20 02:18:20;;;;;;;3.25;1.52;;;;;;;0.52;76.95;98785.16;2549987;29;20055;-78
2021/12/20 02:19:37;;;;;;;2.65;1.10;;;;;;;0.79;75.21;98786.47;2551102;28;20051;-78
2021/12/20 02:20:52;;;;;;;5.38;1.58;;;;;;;0.81;74.98;98788.25;2551290;29;20517;-78
2021/12/20 02:22:08;;;;;;;6.22;1.33;;;;;;;0.87;74.57;98789.19;2552060;29;20122;-78
2021/12/20 02:23:23;;;;;;;3.20;1.10;;;;;;;0.76;75.26;98796.75;2550565;29;20119;-79
2021/12/20 02:24:39;;;;;;;2.58;1.10;;;;;;;0.83;74.84;98798.56;2552084;29;20058;-79
2021/12/20 02:25:55;;;;;;;3.08;1.23;;;;;;;0.88;74.56;98793.50;2551458;29;20107;-78
2021/12/20 02:27:11;;;;;;;4.03;1.30;;;;;;;0.81;74.88;98797.66;2550691;28;20117;-78
2021/12/20 02:28:30;;;;;;;3.10;1.25;;;;;;;0.79;74.89;98791.63;2551688;29;20043;-78
2021/12/20 02:30:01;;;;;;;3.60;1.10;;;;;;;0.74;74.39;98793.28;2549859;29;20051;-79
2021/12/20 02:37:31;;;;;;;2.47;1.13;;;;;;;0.13;77.02;98805.88;2549402;29;20052;-78
2021/12/20 02:38:49;;;;;;;2.20;1.10;;;;;;;0.02;76.97;98809.09;2552291;29;20057;-78
2021/12/20 02:40:05;;;;;;;3.90;1.30;;;;;;;-0.12;77.29;98811.41;2551143;28;20085;-78
2021/12/20 02:41:30;;;;;;;3.00;1.42;;;;;;;-0.27;77.80;98804.22;2549916;29;20075;-78
2021/12/20 02:42:48;;;;;;;2.88;1.00;;;;;;;-0.41;79.57;98817.63;2552823;29;20129;-78
2021/12/20 02:44:06;;;;;;;3.58;1.15;;;;;;;-0.50;80.54;98810.59;2552180;29;20055;-78
2021/12/20 02:45:22;;;;;;;4.63;1.13;;;;;;;-0.59;80.97;98818.09;2552767;29;20152;-78
2021/12/20 02:47:55;;;;;;;4.63;1.23;;;;;;;-0.66;81.82;98818.78;2554238;29;20059;-79
2021/12/20 02:49:21;;;;;;;3.80;1.10;;;;;;;-0.60;81.91;98822.38;2554681;29;20055;-78
2021/12/20 02:50:36;;;;;;;3.15;0.95;;;;;;;-0.62;81.19;98824.06;2554892;29;20058;-77
2021/12/20 02:51:58;;;;;;;2.13;1.20;;;;;;;-0.67;81.48;98822.19;2554417;29;20050;-78
2021/12/20 02:53:14;;;;;;;5.00;1.25;;;;;;;-0.75;81.46;98822.03;2552770;28;20051;-78
2021/12/20 02:54:29;;;;;;;3.65;1.27;;;;;;;-0.81;81.83;98834.72;2553801;29;20063;-78
2021/12/20 02:55:45;;;;;;;3.58;1.27;;;;;;;-0.86;81.77;98829.47;2554228;29;20051;-78
2021/12/20 02:57:01;;;;;;;3.28;1.27;;;;;;;-0.92;81.90;98829.31;2553136;29;20474;-79
2021/12/20 02:58:17;;;;;;;3.65;1.00;;;;;;;-0.95;82.45;98824.97;2553634;29;20083;-78
2021/12/20 02:59:32;;;;;;;3.20;1.00;;;;;;;-0.97;82.78;98830.91;2552970;29;20059;-79
2021/12/20 03:00:48;;;;;;;3.67;0.95;;;;;;;-0.98;82.71;98829.16;2556033;29;20047;-78
2021/12/20 03:02:08;;;;;;;3.65;1.10;;;;;;;-1.02;82.64;98823.94;2554735;28;20518;-78
2021/12/20 03:03:25;;;;;;;5.95;1.27;;;;;;;-1.04;82.91;98835.03;2554852;29;20071;-78
2021/12/20 03:04:40;;;;;;;2.50;1.27;;;;;;;-1.08;83.12;98836.66;2553626;29;20062;-78
2021/12/20 03:05:56;;;;;;;4.45;1.08;;;;;;;-1.10;83.43;98840.00;2554458;28;20414;-78
2021/12/20 03:07:19;;;;;;;1.50;0.88;;;;;;;-1.15;83.24;98847.59;2553336;28;20455;-78
2021/12/20 03:08:36;;;;;;;3.15;1.17;;;;;;;-1.21;82.93;98852.59;2555822;29;20062;-79
2021/12/20 03:10:00;;;;;;;2.13;0.98;;;;;;;-1.24;81.51;98852.50;2553849;28;20063;-78
2021/12/20 03:11:17;;;;;;;2.28;0.90;;;;;;;-1.11;81.47;98857.13;2553233;29;20051;-79
2021/12/20 03:12:33;;;;;;;2.08;0.95;;;;;;;-1.16;81.44;98848.44;2553830;29;20458;-78
2021/12/20 03:13:52;;;;;;;3.67;1.10;;;;;;;-1.20;81.76;98844.03;2554022;29;20682;-80
2021/12/20 03:15:14;;;;;;;4.10;1.58;;;;;;;-1.22;82.20;98846.56;2553693;29;20064;-78
2021/12/20 03:16:30;;;;;;;1.48;0.80;;;;;;;-1.25;82.61;98858.50;2553814;29;20058;-80
2021/12/20 03:17:46;;;;;;;2.65;1.10;;;;;;;-1.29;83.20;98863.53;2558136;29;20417;-78
2021/12/20 03:19:03;;;;;;;4.45;1.48;;;;;;;-1.36;83.07;98866.78;2557298;29;20912;-78
2021/12/20 03:20:20;;;;;;;4.95;1.20;;;;;;;-1.44;83.69;98871.69;2553079;29;20058;-79
2021/12/20 03:21:36;;;;;;;2.83;1.17;;;;;;;-1.47;84.25;98875.88;2554337;29;20057;-78
2021/12/20 03:22:52;;;;;;;5.75;1.10;;;;;;;-1.50;84.63;98871.53;2555347;29;20050;-80
2021/12/20 03:24:08;;;;;;;2.80;1.02;;;;;;;-1.58;84.71;98873.03;2552664;29;20076;-78
2021/12/20 03:25:23;;;;;;;4.28;1.20;;;;;;;-1.61;85.35;98872.91;2553421;29;20122;-78
2021/12/20 03:26:39;;;;;;;3.95;1.45;;;;;;;-1.64;85.36;98866.03;2553887;29;20051;-78
2021/12/20 03:27:55;;;;;;;3.03;1.25;;;;;;;-1.70;84.92;98873.53;2552857;29;20126;-78
2021/12/20 03:29:11;;;;;;;4.00;1.10;;;;;;;-1.74;85.39;98864.91;2556159;28;20058;-78
2021/12/20 03:30:27;;;;;;;5.70;1.20;;;;;;;-1.77;85.37;98859.66;2553362;29;20574;-78
2021/12/20 03:31:42;;;;;;;4.30;1.25;;;;;;;-1.81;85.40;98864.69;2553781;29;20052;-80
2021/12/20 03:32:58;;;;;;;4.00;1.15;;;;;;;-1.84;85.24;98868.03;2555376;28;20089;-81
2021/12/20 03:34:14;;;;;;;5.03;1.10;;;;;;;-1.83;85.50;98871.44;2553159;29;20062;-78
2021/12/20 03:35:30;;;;;;;2.08;1.20;;;;;;;-1.85;85.28;98876.56;2553170;29;20051;-77
2021/12/20 03:36:46;;;;;;;2.28;1.50;;;;;;;-1.95;84.54;98870.28;2554604;28;20055;-79
2021/12/20 03:38:02;;;;;;;3.67;1.20;;;;;;;-2.04;84.34;98870.84;2554556;29;20740;-78
2021/12/20 03:39:18;;;;;;;4.45;1.20;;;;;;;-2.13;84.22;98868.91;2552577;29;20055;-78
2021/12/20 03:40:33;;;;;;;3.33;1.00;;;;;;;-2.14;84.25;98867.16;2553500;29;20430;-77
2021/12/20 03:41:49;;;;;;;5.07;1.10;;;;;;;-2.22;84.44;98870.31;2552807;29;20055;-78
2021/12/20 03:43:06;;;;;;;4.32;1.30;;;;;;;-2.29;84.65;98877.84;2553037;28;20051;-78
2021/12/20 03:44:21;;;;;;;1.52;0.98;;;;;;;-2.33;84.83;98875.97;2555688;28;20051;-79
2021/12/20 03:45:37;;;;;;;5.95;1.15;;;;;;;-2.32;85.77;98872.59;2553926;29;20059;-78
2021/12/20 03:46:53;;;;;;;4.85;1.10;;;;;;;-2.27;85.74;98877.88;2553278;29;20082;-78
2021/12/20 03:48:09;;;;;;;3.58;1.00;;;;;;;-2.26;85.58;98877.03;2554737;28;20102;-79
2021/12/20 03:49:25;;;;;;;2.50;0.90;;;;;;;-2.23;85.52;98881.41;2552890;29;20047;-79
2021/12/20 03:50:40;;;;;;;5.13;1.27;;;;;;;-2.27;85.82;98877.88;2555884;29;20066;-79
2021/12/20 03:51:56;;;;;;;1.85;0.90;;;;;;;-2.29;85.52;98885.53;2553158;29;20141;-78
2021/12/20 03:53:11;;;;;;;3.20;1.10;;;;;;;-2.32;85.15;98882.84;2552246;29;20055;-78
2021/12/20 03:54:27;;;;;;;3.90;1.05;;;;;;;-2.34;85.32;98879.38;2554429;29;20499;-79
2021/12/20 03:55:43;;;;;;;6.68;0.90;;;;;;;-2.39;84.92;98877.50;2551000;28;20936;-78
2021/12/20 03:56:58;;;;;;;4.68;1.02;;;;;;;-2.42;84.42;98880.84;2550940;29;20059;-80
2021/12/20 03:58:14;;;;;;;3.20;1.00;;;;;;;-2.45;84.40;98880.72;2553732;29;20047;-79
2021/12/20 03:59:30;;;;;;;2.85;0.95;;;;;;;-2.49;84.34;98884.03;2552464;29;20087;-78
2021/12/20 04:00:47;;;;;;;3.58;1.13;;;;;;;-2.48;84.28;98876.41;2552309;29;20086;-83
2021/12/20 04:02:05;;;;;;;2.80;1.00;;;;;;;-2.46;84.76;98889.25;2553277;29;20668;-78
2021/12/20 04:03:21;;;;;;;1.90;0.90;;;;;;;-2.46;85.05;98882.44;2551516;28;20144;-78
2021/12/20 04:04:36;;;;;;;3.67;1.23;;;;;;;-2.45;85.21;98891.88;2551900;29;20113;-79
2021/12/20 04:05:52;;;;;;;2.85;1.00;;;;;;;-2.45;85.32;98884.19;2554052;29;20548;-78
2021/12/20 04:07:08;;;;;;;5.65;1.10;;;;;;;-2.40;85.21;98879.19;2551218;28;20052;-79
2021/12/20 04:08:24;;;;;;;2.55;0.70;;;;;;;-2.33;85.01;98883.69;2551863;29;20052;-78
2021/12/20 04:09:39;;;;;;;5.68;1.13;;;;;;;-2.33;85.09;98883.69;2552676;29;20055;-78
2021/12/20 04:10:57;;;;;;;6.22;1.20;;;;;;;-2.32;84.62;98889.69;2551192;29;20059;-80
2021/12/20 04:12:12;;;;;;;1.73;0.85;;;;;;;-2.36;84.57;98885.31;2551151;29;20055;-79
2021/12/20 04:13:28;;;;;;;4.38;0.90;;;;;;;-2.50;83.23;98889.97;2551203;29;20055;-78
2021/12/20 04:14:44;;;;;;;4.72;1.30;;;;;;;-2.39;84.04;98891.19;2553221;29;20047;-77
2021/12/20 04:16:00;;;;;;;5.35;1.23;;;;;;;-2.29;83.21;98887.22;2553262;29;20051;-78
2021/12/20 04:17:16;;;;;;;3.75;1.27;;;;;;;-2.19;83.35;98884.13;2551862;29;20051;-78
2021/12/20 04:18:32;;;;;;;2.13;1.08;;;;;;;-2.16;83.41;98889.34;2551687;29;20058;-81
2021/12/20 04:19:48;;;;;;;4.68;1.00;;;;;;;-2.13;82.96;98883.44;2552967;28;20066;-79
2021/12/20 04:21:03;;;;;;;4.90;1.10;;;;;;;-2.03;81.32;98890.56;2550460;29;20497;-78
2021/12/20 04:22:19;;;;;;;3.83;0.90;;;;;;;-2.00;81.08;98879.53;2551448;29;20400;-82
2021/12/20 04:23:35;;;;;;;2.78;1.10;;;;;;;-2.04;81.64;98883.69;2553133;29;20557;-78
2021/12/20 04:24:50;;;;;;;2.03;0.80;;;;;;;-2.01;81.56;98878.66;2550653;29;20236;-78
2021/12/20 04:26:06;;;;;;;3.63;0.80;;;;;;;-2.02;81.53;98876.94;2552476;29;20498;-80
2021/12/20 04:27:22;;;;;;;3.72;1.08;;;;;;;-2.05;81.88;98887.09;2551846;29;20079;-80
2021/12/20 04:28:38;;;;;;;3.70;1.33;;;;;;;-2.16;82.04;98889.34;2551201;28;20541;-78
2021/12/20 04:29:54;;;;;;;3.90;1.15;;;;;;;-2.23;82.60;98876.28;2552799;29;20047;-79
2021/12/20 04:31:10;;;;;;;3.00;1.02;;;;;;;-2.33;83.25;98880.25;2550979;29;20525;-80
2021/12/20 04:32:26;;;;;;;3.95;0.90;;;;;;;-2.34;83.31;98878.53;2550784;29;20074;-78
2021/12/20 04:33:42;;;;;;;2.15;0.90;;;;;;;-2.41;83.47;98880.88;2553444;29;20101;-79
2021/12/20 04:34:58;;;;;;;2.47;0.88;;;;;;;-2.44;83.67;98888.47;2552873;29;20062;-78
2021/12/20 04:36:13;;;;;;;3.13;1.05;;;;;;;-2.50;84.00;98890.88;2550652;29;20718;-80
2021/12/20 04:37:29;;;;;;;3.08;1.13;;;;;;;-2.54;84.10;98899.25;2552246;29;20058;-80
2021/12/20 04:38:45;;;;;;;3.53;1.08;;;;;;;-2.63;84.24;98897.28;2552083;29;20047;-78
2021/12/20 04:40:06;;;;;;;6.05;1.13;;;;;;;-2.73;83.93;98892.66;2550474;29;20043;-79
2021/12/20 04:41:22;;;;;;;5.28;0.93;;;;;;;-2.82;84.64;98893.25;2551779;28;20537;-78
2021/12/20 04:42:37;;;;;;;2.55;1.00;;;;;;;-2.89;84.27;98901.56;2550092;29;20562;-78
2021/12/20 04:43:53;;;;;;;2.65;1.00;;;;;;;-2.98;84.67;98910.66;2551677;29;20055;-79
2021/12/20 04:45:09;;;;;;;2.20;1.17;;;;;;;-3.02;84.71;98910.50;2553382;29;20054;-79
2021/12/20 04:46:24;;;;;;;2.78;0.93;;;;;;;-3.07;84.96;98904.38;2551187;29;20469;-79
2021/12/20 04:47:40;;;;;;;2.67;1.40;;;;;;;-3.07;84.88;98906.94;2552850;29;20062;-79
2021/12/20 04:48:56;;;;;;;5.78;1.27;;;;;;;-3.12;84.72;98901.66;2551661;29;20519;-79
2021/12/20 04:50:12;;;;;;;2.30;1.10;;;;;;;-3.15;84.84;98909.22;2552046;29;20055;-78
2021/12/20 04:51:27;;;;;;;2.58;0.90;;;;;;;-3.19;85.05;98912.50;2552306;29;20071;-78
2021/12/20 04:52:43;;;;;;;4.82;1.80;;;;;;;-3.17;85.41;98908.31;2549659;29;20063;-78
2021/12/20 04:53:59;;;;;;;3.95;1.23;;;;;;;-3.09;84.98;98900.88;2551564;29;20110;-79
2021/12/20 04:55:14;;;;;;;2.70;0.88;;;;;;;-2.91;84.04;98900.66;2552472;29;20082;-78
2021/12/20 04:56:30;;;;;;;2.30;0.80;;;;;;;-2.75;83.05;98896.88;2550613;29;20063;-78
2021/12/20 04:57:47;;;;;;;2.33;0.90;;;;;;;-2.45;82.10;98897.00;2550497;29;20051;-78
2021/12/20 04:59:03;;;;;;;1.42;0.77;;;;;;;-2.16;80.59;98893.63;2551873;29;20479;-79
2021/12/20 05:00:22;;;;;;;2.85;0.85;;;;;;;-1.93;79.30;98898.53;2553608;29;20074;-79
2021/12/20 05:01:37;;;;;;;3.63;0.98;;;;;;;-1.86;78.99;98898.75;2550235;28;20102;-78
2021/12/20 05:02:53;;;;;;;1.67;0.70;;;;;;;-1.79;78.29;98904.09;2552082;29;20502;-79
2021/12/20 05:04:09;;;;;;;1.92;0.82;;;;;;;-1.65;78.03;98904.47;2550134;29;20470;-79
2021/12/20 05:05:24;;;;;;;1.40;0.80;;;;;;;-1.49;77.18;98908.34;2551439;28;20051;-78
2021/12/20 05:06:40;;;;;;;1.75;0.90;;;;;;;-1.43;76.86;98906.81;2550592;28;20047;-78
2021/12/20 05:07:56;;;;;;;4.43;1.08;;;;;;;-1.36;76.68;98910.44;2550443;29;20059;-78
2021/12/20 05:09:12;;;;;;;1.58;0.80;;;;;;;-1.27;76.10;98912.38;2551632;29;20656;-78
2021/12/20 05:10:34;;;;;;;3.65;1.10;;;;;;;-1.18;75.44;98910.06;2550543;29;20055;-78
2021/12/20 05:11:58;;;;;;;3.53;0.93;;;;;;;-1.21;75.32;98909.97;2551186;29;20048;-78
2021/12/20 05:13:14;;;;;;;3.85;1.10;;;;;;;-1.31;75.74;98915.72;2550358;29;20414;-79
2021/12/20 05:14:29;;;;;;;1.08;0.82;;;;;;;-1.44;76.08;98917.94;2550838;29;20490;-78
2021/12/20 05:15:45;;;;;;;3.30;1.30;;;;;;;-1.60;76.48;98910.63;2549453;29;20055;-78
2021/12/20 05:17:01;;;;;;;3.03;0.80;;;;;;;-1.75;77.58;98923.88;2551919;29;20058;-79
2021/12/20 05:18:17;;;;;;;3.60;0.95;;;;;;;-1.91;78.51;98928.56;2551093;28;20558;-78
2021/12/20 05:19:33;;;;;;;2.33;1.05;;;;;;;-2.00;79.05;98929.16;2550975;29;20516;-83
2021/12/20 05:20:48;;;;;;;4.90;1.40;;;;;;;-2.10;79.49;98933.94;2551344;29;20053;-79
2021/12/20 05:22:04;;;;;;;2.53;0.73;;;;;;;-1.83;77.82;98923.66;2551950;29;20138;-79
2021/12/20 05:23:20;;;;;;;2.30;0.82;;;;;;;-1.85;77.17;98928.72;2549959;29;20086;-79
2021/12/20 05:24:37;;;;;;;2.20;0.90;;;;;;;-1.90;77.67;98921.72;2550347;29;20062;-79
2021/12/20 05:25:53;;;;;;;4.60;1.40;;;;;;;-1.97;77.91;98924.94;2551887;29;20043;-82
2021/12/20 05:27:08;;;;;;;6.13;1.25;;;;;;;-2.06;78.75;98930.69;2550953;29;20051;-85
2021/12/20 05:28:24;;;;;;;1.55;1.30;;;;;;;-2.08;78.68;98929.75;2552978;28;20051;-83
2021/12/20 05:29:40;;;;;;;1.63;0.90;;;;;;;-2.16;78.89;98929.53;2550390;28;20086;-79
2021/12/20 05:30:55;;;;;;;2.28;1.00;;;;;;;-2.28;79.56;98941.13;2551448;28;20501;-79
2021/12/20 05:32:11;;;;;;;3.65;1.23;;;;;;;-2.36;80.19;98939.16;2552791;29;20051;-79
2021/12/20 05:33:27;;;;;;;4.13;1.60;;;;;;;-2.45;80.89;98937.13;2552871;28;20545;-79
2021/12/20 05:34:43;;;;;;;4.15;1.13;;;;;;;-2.53;81.24;98942.03;2552724;29;20059;-80
2021/12/20 05:35:59;;;;;;;3.03;0.90;;;;;;;-2.66;81.03;98927.06;2549832;29;20138;-80
2021/12/20 05:37:16;;;;;;;5.10;1.00;;;;;;;-2.73;81.01;98937.13;2550921;29;20069;-79
2021/12/20 05:38:31;;;;;;;2.42;0.90;;;;;;;-2.78;81.69;98935.22;2553104;29;20139;-83
2021/12/20 05:39:47;;;;;;;1.90;0.88;;;;;;;-2.85;80.97;98942.72;2551441;29;20081;-79
2021/12/20 05:41:03;;;;;;;1.48;1.00;;;;;;;-2.96;81.04;98944.03;2550298;29;20057;-79
2021/12/20 05:42:19;;;;;;;1.85;0.80;;;;;;;-3.00;81.56;98948.19;2549966;29;20114;-79
2021/12/20 05:43:34;;;;;;;1.38;0.80;;;;;;;-3.01;81.67;98951.56;2551738;29;20434;-79
2021/12/20 05:44:54;;;;;;;3.30;1.00;;;;;;;-3.07;81.87;98953.94;2549978;29;20051;-80
2021/12/20 05:46:10;;;;;;;4.60;1.10;;;;;;;-3.16;81.05;98957.00;2550174;29;20811;-81
2021/12/20 05:47:26;;;;;;;2.50;1.08;;;;;;;-3.20;82.11;98951.75;2551948;29;20064;-80
2021/12/20 05:48:42;;;;;;;2.20;1.00;;;;;;;-3.27;81.77;98945.53;2553031;28;20089;-79
2021/12/20 05:49:57;;;;;;;1.13;0.80;;;;;;;-3.26;82.16;98948.13;2553151;29;20051;-80
2021/12/20 05:51:13;;;;;;;3.35;1.00;;;;;;;-3.31;81.77;98957.34;2551344;29;20051;-79
2021/12/20 05:52:29;;;;;;;3.88;1.13;;;;;;;-3.31;82.28;98956.47;2550584;29;20062;-79
2021/12/20 05:53:44;;;;;;;4.65;1.20;;;;;;;-3.35;82.51;98960.63;2550737;28;20056;-79
2021/12/20 05:55:00;;;;;;;1.88;1.00;;;;;;;-3.35;82.67;98969.97;2552107;29;20202;-79
2021/12/20 05:56:16;;;;;;;3.88;1.10;;;;;;;-3.36;83.03;98974.22;2551489;29;20050;-79
2021/12/20 05:57:32;;;;;;;3.63;1.50;;;;;;;-3.34;83.12;98971.72;2548883;29;20067;-80
2021/12/20 05:58:47;;;;;;;4.80;1.20;;;;;;;-3.42;82.59;98969.78;2550087;29;20067;-79
2021/12/20 06:00:06;;;;;;;2.78;1.35;;;;;;;-3.45;82.70;98963.66;2551098;29;20102;-79
2021/12/20 06:01:22;;;;;;;3.30;0.90;;;;;;;-3.51;81.83;98972.00;2549571;28;20062;-81
2021/12/20 06:02:38;;;;;;;4.45;1.15;;;;;;;-3.57;82.11;98964.94;2552167;29;20055;-79
2021/12/20 06:03:54;;;;;;;4.85;1.00;;;;;;;-3.64;82.24;98968.09;2552265;29;20499;-79
2021/12/20 06:05:10;;;;;;;2.25;1.00;;;;;;;-3.71;81.95;98968.69;2551526;29;20052;-79
2021/12/20 06:06:31;;;;;;;3.00;1.00;;;;;;;-3.74;82.49;98968.56;2551195;29;20077;-79
2021/12/20 06:07:47;;;;;;;4.68;1.10;;;;;;;-3.74;83.16;98973.69;2550147;29;20058;-80
2021/12/20 06:09:03;;;;;;;3.20;1.27;;;;;;;-3.74;82.98;98971.13;2549959;29;20067;-79
2021/12/20 06:10:19;;;;;;;2.28;1.10;;;;;;;-3.76;82.39;98983.00;2550482;28;20498;-80
2021/12/20 06:11:34;;;;;;;2.75;0.95;;;;;;;-3.86;82.73;98976.63;2551276;29;20055;-82
2021/12/20 06:12:50;;;;;;;4.20;1.10;;;;;;;-3.87;82.95;98974.91;2551472;29;20082;-79
2021/12/20 06:14:06;;;;;;;2.80;1.13;;;;;;;-3.91;83.30;98980.72;2551366;29;20059;-79
2021/12/20 06:15:21;;;;;;;4.03;1.30;;;;;;;-3.88;83.73;98984.28;2550203;28;20051;-79